sensor_id;sensor_type;location;lat;lon;timestamp;P1;durP1;ratioP1;P2;durP2;ratioP2
39410;SDS011;26579;43.238;23.124;2022-12-07T00:00:40;39.22;;;16.85;;
39410;SDS011;26579;43.238;23.124;2022-12-07T00:03:06;32.45;;;15.20;;
39410;SDS011;26579;43.238;23.124;2022-12-07T00:05:32;36.63;;;15.25;;
39410;SDS011;26579;43.238;23.124;2022-12-07T00:07:57;32.45;;;15.25;;
39410;SDS011;26579;43.238;23.124;2022-12-07T00:10:23;28.80;;;13.43;;
39410;SDS011;26579;43.238;23.124;2022-12-07T00:12:49;27.15;;;13.27;;
39410;SDS011;26579;43.238;23.124;2022-12-07T00:15:14;28.02;;;13.68;;
39410;SDS011;26579;43.238;23.124;2022-12-07T00:17:40;26.08;;;13.43;;
39410;SDS011;26579;43.238;23.124;2022-12-07T00:20:06;28.35;;;13.30;;
39410;SDS011;26579;43.238;23.124;2022-12-07T00:22:32;28.45;;;14.43;;
39410;SDS011;26579;43.238;23.124;2022-12-07T00:24:57;29.40;;;13.55;;
39410;SDS011;26579;43.238;23.124;2022-12-07T00:27:23;29.08;;;14.25;;
39410;SDS011;26579;43.238;23.124;2022-12-07T00:29:49;34.25;;;14.38;;
39410;SDS011;26579;43.238;23.124;2022-12-07T00:32:14;27.15;;;11.57;;
39410;SDS011;26579;43.238;23.124;2022-12-07T00:34:40;26.65;;;13.38;;
39410;SDS011;26579;43.238;23.124;2022-12-07T00:37:06;31.27;;;13.88;;
39410;SDS011;26579;43.238;23.124;2022-12-07T00:39:31;28.23;;;12.73;;
39410;SDS011;26579;43.238;23.124;2022-12-07T00:41:57;24.88;;;12.00;;
39410;SDS011;26579;43.238;23.124;2022-12-07T00:44:23;24.48;;;11.48;;
39410;SDS011;26579;43.238;23.124;2022-12-07T00:46:48;30.58;;;13.07;;
39410;SDS011;26579;43.238;23.124;2022-12-07T00:49:14;24.85;;;12.15;;
39410;SDS011;26579;43.238;23.124;2022-12-07T00:51:39;25.42;;;12.07;;
39410;SDS011;26579;43.238;23.124;2022-12-07T00:54:05;30.80;;;12.73;;
39410;SDS011;26579;43.238;23.124;2022-12-07T00:56:31;27.70;;;13.82;;
39410;SDS011;26579;43.238;23.124;2022-12-07T00:58:57;25.98;;;11.48;;
39410;SDS011;26579;43.238;23.124;2022-12-07T01:01:26;33.03;;;12.90;;
39410;SDS011;26579;43.238;23.124;2022-12-07T01:03:53;24.45;;;11.65;;
39410;SDS011;26579;43.238;23.124;2022-12-07T01:06:20;31.25;;;13.55;;
39410;SDS011;26579;43.238;23.124;2022-12-07T01:08:46;30.73;;;14.63;;
39410;SDS011;26579;43.238;23.124;2022-12-07T01:11:13;45.70;;;21.13;;
39410;SDS011;26579;43.238;23.124;2022-12-07T01:13:41;61.40;;;26.85;;
39410;SDS011;26579;43.238;23.124;2022-12-07T01:16:07;33.40;;;15.10;;
39410;SDS011;26579;43.238;23.124;2022-12-07T01:18:35;61.30;;;25.30;;
39410;SDS011;26579;43.238;23.124;2022-12-07T01:23:27;30.20;;;11.85;;
39410;SDS011;26579;43.238;23.124;2022-12-07T01:25:54;26.73;;;11.73;;
39410;SDS011;26579;43.238;23.124;2022-12-07T01:28:21;49.65;;;21.10;;
39410;SDS011;26579;43.238;23.124;2022-12-07T01:33:29;24.00;;;10.43;;
39410;SDS011;26579;43.238;23.124;2022-12-07T01:38:33;46.72;;;22.52;;
39410;SDS011;26579;43.238;23.124;2022-12-07T01:41:00;33.78;;;12.50;;
39410;SDS011;26579;43.238;23.124;2022-12-07T01:43:29;19.40;;;9.38;;
39410;SDS011;26579;43.238;23.124;2022-12-07T01:45:56;22.52;;;9.63;;
39410;SDS011;26579;43.238;23.124;2022-12-07T01:48:23;31.23;;;13.38;;
39410;SDS011;26579;43.238;23.124;2022-12-07T01:50:53;35.10;;;15.10;;
39410;SDS011;26579;43.238;23.124;2022-12-07T01:53:21;39.33;;;19.25;;
39410;SDS011;26579;43.238;23.124;2022-12-07T01:55:51;29.92;;;13.43;;
39410;SDS011;26579;43.238;23.124;2022-12-07T01:58:18;27.67;;;14.25;;
39410;SDS011;26579;43.238;23.124;2022-12-07T02:00:45;24.98;;;12.05;;
39410;SDS011;26579;43.238;23.124;2022-12-07T02:03:13;21.17;;;11.52;;
39410;SDS011;26579;43.238;23.124;2022-12-07T02:05:52;23.63;;;12.85;;
39410;SDS011;26579;43.238;23.124;2022-12-07T02:08:19;23.58;;;11.20;;
39410;SDS011;26579;43.238;23.124;2022-12-07T02:10:45;18.65;;;9.60;;
39410;SDS011;26579;43.238;23.124;2022-12-07T02:13:15;20.45;;;10.02;;
39410;SDS011;26579;43.238;23.124;2022-12-07T02:21:49;30.30;;;13.80;;
39410;SDS011;26579;43.238;23.124;2022-12-07T02:30:11;33.08;;;14.50;;
39410;SDS011;26579;43.238;23.124;2022-12-07T02:35:20;25.08;;;12.07;;
39410;SDS011;26579;43.238;23.124;2022-12-07T02:43:00;26.52;;;11.30;;
39410;SDS011;26579;43.238;23.124;2022-12-07T02:45:34;25.63;;;11.10;;
39410;SDS011;26579;43.238;23.124;2022-12-07T02:48:03;35.58;;;17.92;;
39410;SDS011;26579;43.238;23.124;2022-12-07T02:50:32;29.52;;;14.85;;
39410;SDS011;26579;43.238;23.124;2022-12-07T02:52:57;24.77;;;12.57;;
39410;SDS011;26579;43.238;23.124;2022-12-07T02:55:26;27.95;;;12.18;;
39410;SDS011;26579;43.238;23.124;2022-12-07T03:00:52;30.63;;;14.13;;
39410;SDS011;26579;43.238;23.124;2022-12-07T03:03:27;29.67;;;15.15;;
39410;SDS011;26579;43.238;23.124;2022-12-07T03:05:59;35.35;;;15.65;;
39410;SDS011;26579;43.238;23.124;2022-12-07T03:08:29;32.38;;;15.25;;
39410;SDS011;26579;43.238;23.124;2022-12-07T03:11:21;32.70;;;12.00;;
39410;SDS011;26579;43.238;23.124;2022-12-07T03:16:42;32.72;;;15.07;;
39410;SDS011;26579;43.238;23.124;2022-12-07T03:19:18;31.88;;;12.95;;
39410;SDS011;26579;43.238;23.124;2022-12-07T03:21:47;33.47;;;13.00;;
39410;SDS011;26579;43.238;23.124;2022-12-07T03:24:19;33.70;;;12.40;;
39410;SDS011;26579;43.238;23.124;2022-12-07T03:26:54;35.92;;;14.77;;
39410;SDS011;26579;43.238;23.124;2022-12-07T03:29:34;32.33;;;12.05;;
39410;SDS011;26579;43.238;23.124;2022-12-07T03:32:06;43.05;;;15.45;;
39410;SDS011;26579;43.238;23.124;2022-12-07T03:34:44;33.30;;;13.77;;
39410;SDS011;26579;43.238;23.124;2022-12-07T03:37:18;24.00;;;11.57;;
39410;SDS011;26579;43.238;23.124;2022-12-07T03:40:13;21.33;;;9.45;;
39410;SDS011;26579;43.238;23.124;2022-12-07T03:42:44;20.02;;;9.70;;
39410;SDS011;26579;43.238;23.124;2022-12-07T03:45:11;20.55;;;11.00;;
39410;SDS011;26579;43.238;23.124;2022-12-07T03:50:31;25.60;;;10.85;;
39410;SDS011;26579;43.238;23.124;2022-12-07T03:53:13;24.85;;;12.48;;
39410;SDS011;26579;43.238;23.124;2022-12-07T03:55:44;23.63;;;11.43;;
39410;SDS011;26579;43.238;23.124;2022-12-07T03:58:13;26.05;;;11.52;;
39410;SDS011;26579;43.238;23.124;2022-12-07T04:00:43;29.77;;;13.50;;
39410;SDS011;26579;43.238;23.124;2022-12-07T04:03:09;30.17;;;14.23;;
39410;SDS011;26579;43.238;23.124;2022-12-07T04:05:35;28.95;;;13.32;;
39410;SDS011;26579;43.238;23.124;2022-12-07T04:08:02;35.60;;;15.88;;
39410;SDS011;26579;43.238;23.124;2022-12-07T04:10:28;37.08;;;19.92;;
39410;SDS011;26579;43.238;23.124;2022-12-07T04:12:53;33.35;;;16.05;;
39410;SDS011;26579;43.238;23.124;2022-12-07T04:15:19;35.55;;;16.67;;
39410;SDS011;26579;43.238;23.124;2022-12-07T04:17:45;37.15;;;16.70;;
39410;SDS011;26579;43.238;23.124;2022-12-07T04:20:11;35.97;;;16.63;;
39410;SDS011;26579;43.238;23.124;2022-12-07T04:22:37;41.45;;;19.10;;
39410;SDS011;26579;43.238;23.124;2022-12-07T04:25:03;39.00;;;17.67;;
39410;SDS011;26579;43.238;23.124;2022-12-07T04:27:29;40.72;;;18.15;;
39410;SDS011;26579;43.238;23.124;2022-12-07T04:29:54;34.10;;;17.95;;
39410;SDS011;26579;43.238;23.124;2022-12-07T04:32:20;36.55;;;17.52;;
39410;SDS011;26579;43.238;23.124;2022-12-07T04:34:46;99.03;;;34.28;;
39410;SDS011;26579;43.238;23.124;2022-12-07T04:37:12;77.32;;;32.20;;
39410;SDS011;26579;43.238;23.124;2022-12-07T04:39:37;48.45;;;22.95;;
39410;SDS011;26579;43.238;23.124;2022-12-07T04:42:03;54.08;;;23.92;;
39410;SDS011;26579;43.238;23.124;2022-12-07T04:44:29;49.28;;;24.75;;
39410;SDS011;26579;43.238;23.124;2022-12-07T04:46:55;38.80;;;19.13;;
39410;SDS011;26579;43.238;23.124;2022-12-07T04:49:21;35.88;;;17.10;;
39410;SDS011;26579;43.238;23.124;2022-12-07T04:51:48;38.55;;;18.35;;
39410;SDS011;26579;43.238;23.124;2022-12-07T04:54:15;40.92;;;18.77;;
39410;SDS011;26579;43.238;23.124;2022-12-07T04:56:41;37.75;;;17.73;;
39410;SDS011;26579;43.238;23.124;2022-12-07T04:59:08;37.80;;;18.48;;
39410;SDS011;26579;43.238;23.124;2022-12-07T05:01:35;35.85;;;17.38;;
39410;SDS011;26579;43.238;23.124;2022-12-07T05:04:01;34.30;;;15.43;;
39410;SDS011;26579;43.238;23.124;2022-12-07T05:06:27;34.47;;;17.88;;
39410;SDS011;26579;43.238;23.124;2022-12-07T05:08:53;35.97;;;17.98;;
39410;SDS011;26579;43.238;23.124;2022-12-07T05:11:19;44.83;;;24.63;;
39410;SDS011;26579;43.238;23.124;2022-12-07T05:13:45;41.35;;;20.63;;
39410;SDS011;26579;43.238;23.124;2022-12-07T05:16:10;41.38;;;22.10;;
39410;SDS011;26579;43.238;23.124;2022-12-07T05:18:36;49.75;;;26.27;;
39410;SDS011;26579;43.238;23.124;2022-12-07T05:21:01;42.15;;;23.13;;
39410;SDS011;26579;43.238;23.124;2022-12-07T05:23:27;34.67;;;15.70;;
39410;SDS011;26579;43.238;23.124;2022-12-07T05:25:53;33.45;;;17.40;;
39410;SDS011;26579;43.238;23.124;2022-12-07T05:28:18;39.90;;;19.92;;
39410;SDS011;26579;43.238;23.124;2022-12-07T05:30:44;38.88;;;19.35;;
39410;SDS011;26579;43.238;23.124;2022-12-07T05:33:10;39.67;;;20.75;;
39410;SDS011;26579;43.238;23.124;2022-12-07T05:35:36;38.40;;;19.35;;
39410;SDS011;26579;43.238;23.124;2022-12-07T05:38:02;49.08;;;27.05;;
39410;SDS011;26579;43.238;23.124;2022-12-07T05:40:27;48.83;;;23.67;;
39410;SDS011;26579;43.238;23.124;2022-12-07T05:42:53;50.00;;;26.35;;
39410;SDS011;26579;43.238;23.124;2022-12-07T05:45:19;142.13;;;66.88;;
39410;SDS011;26579;43.238;23.124;2022-12-07T05:47:44;121.80;;;57.83;;
39410;SDS011;26579;43.238;23.124;2022-12-07T05:50:10;148.50;;;73.35;;
39410;SDS011;26579;43.238;23.124;2022-12-07T05:52:36;155.75;;;81.97;;
39410;SDS011;26579;43.238;23.124;2022-12-07T05:55:01;93.70;;;51.22;;
39410;SDS011;26579;43.238;23.124;2022-12-07T05:57:27;57.55;;;33.40;;
39410;SDS011;26579;43.238;23.124;2022-12-07T05:59:53;56.50;;;31.80;;
39410;SDS011;26579;43.238;23.124;2022-12-07T06:02:19;48.25;;;25.65;;
39410;SDS011;26579;43.238;23.124;2022-12-07T06:04:45;51.17;;;27.95;;
39410;SDS011;26579;43.238;23.124;2022-12-07T06:07:12;61.63;;;31.55;;
39410;SDS011;26579;43.238;23.124;2022-12-07T06:09:39;59.17;;;29.05;;
39410;SDS011;26579;43.238;23.124;2022-12-07T06:12:05;56.55;;;28.25;;
39410;SDS011;26579;43.238;23.124;2022-12-07T06:14:31;51.60;;;24.73;;
39410;SDS011;26579;43.238;23.124;2022-12-07T06:16:57;57.95;;;31.15;;
39410;SDS011;26579;43.238;23.124;2022-12-07T06:19:23;60.20;;;33.38;;
39410;SDS011;26579;43.238;23.124;2022-12-07T06:21:49;51.33;;;26.17;;
39410;SDS011;26579;43.238;23.124;2022-12-07T06:24:15;56.88;;;29.60;;
39410;SDS011;26579;43.238;23.124;2022-12-07T06:26:42;99.47;;;50.28;;
39410;SDS011;26579;43.238;23.124;2022-12-07T06:29:08;67.63;;;34.20;;
39410;SDS011;26579;43.238;23.124;2022-12-07T06:31:34;86.60;;;46.45;;
39410;SDS011;26579;43.238;23.124;2022-12-07T06:34:02;98.10;;;54.90;;
39410;SDS011;26579;43.238;23.124;2022-12-07T06:36:32;56.85;;;29.67;;
39410;SDS011;26579;43.238;23.124;2022-12-07T06:38:58;57.72;;;30.58;;
39410;SDS011;26579;43.238;23.124;2022-12-07T06:41:24;97.75;;;45.17;;
39410;SDS011;26579;43.238;23.124;2022-12-07T06:43:49;77.63;;;37.67;;
39410;SDS011;26579;43.238;23.124;2022-12-07T06:46:16;69.88;;;36.92;;
39410;SDS011;26579;43.238;23.124;2022-12-07T06:48:42;62.45;;;35.70;;
39410;SDS011;26579;43.238;23.124;2022-12-07T06:51:08;64.80;;;36.63;;
39410;SDS011;26579;43.238;23.124;2022-12-07T06:53:35;73.78;;;41.08;;
39410;SDS011;26579;43.238;23.124;2022-12-07T06:56:01;78.90;;;47.33;;
39410;SDS011;26579;43.238;23.124;2022-12-07T06:58:27;57.65;;;32.30;;
39410;SDS011;26579;43.238;23.124;2022-12-07T07:00:53;82.10;;;45.72;;
39410;SDS011;26579;43.238;23.124;2022-12-07T07:03:19;63.10;;;35.20;;
39410;SDS011;26579;43.238;23.124;2022-12-07T07:05:45;60.63;;;31.73;;
39410;SDS011;26579;43.238;23.124;2022-12-07T07:08:11;56.40;;;28.95;;
39410;SDS011;26579;43.238;23.124;2022-12-07T07:10:37;74.00;;;38.03;;
39410;SDS011;26579;43.238;23.124;2022-12-07T07:13:03;58.78;;;31.65;;
39410;SDS011;26579;43.238;23.124;2022-12-07T07:15:29;56.50;;;31.00;;
39410;SDS011;26579;43.238;23.124;2022-12-07T07:17:55;59.05;;;30.75;;
39410;SDS011;26579;43.238;23.124;2022-12-07T07:20:21;57.03;;;29.08;;
39410;SDS011;26579;43.238;23.124;2022-12-07T07:22:47;79.07;;;40.28;;
39410;SDS011;26579;43.238;23.124;2022-12-07T07:25:13;70.72;;;36.63;;
39410;SDS011;26579;43.238;23.124;2022-12-07T07:27:39;64.28;;;32.20;;
39410;SDS011;26579;43.238;23.124;2022-12-07T07:30:05;62.38;;;33.05;;
39410;SDS011;26579;43.238;23.124;2022-12-07T07:32:32;67.68;;;32.08;;
39410;SDS011;26579;43.238;23.124;2022-12-07T07:34:57;73.22;;;38.67;;
39410;SDS011;26579;43.238;23.124;2022-12-07T07:37:23;65.80;;;32.72;;
39410;SDS011;26579;43.238;23.124;2022-12-07T07:39:49;53.85;;;25.02;;
39410;SDS011;26579;43.238;23.124;2022-12-07T07:42:15;33.30;;;15.65;;
39410;SDS011;26579;43.238;23.124;2022-12-07T07:44:42;35.38;;;18.02;;
39410;SDS011;26579;43.238;23.124;2022-12-07T07:47:08;33.47;;;18.05;;
39410;SDS011;26579;43.238;23.124;2022-12-07T07:49:34;52.25;;;24.00;;
39410;SDS011;26579;43.238;23.124;2022-12-07T07:51:59;35.70;;;18.98;;
39410;SDS011;26579;43.238;23.124;2022-12-07T07:54:25;37.85;;;19.15;;
39410;SDS011;26579;43.238;23.124;2022-12-07T07:56:51;36.55;;;17.33;;
39410;SDS011;26579;43.238;23.124;2022-12-07T07:59:17;53.13;;;24.83;;
39410;SDS011;26579;43.238;23.124;2022-12-07T08:01:43;57.35;;;30.17;;
39410;SDS011;26579;43.238;23.124;2022-12-07T08:04:09;78.93;;;39.88;;
39410;SDS011;26579;43.238;23.124;2022-12-07T08:06:34;53.78;;;29.58;;
39410;SDS011;26579;43.238;23.124;2022-12-07T08:09:00;55.50;;;27.95;;
39410;SDS011;26579;43.238;23.124;2022-12-07T08:11:26;49.22;;;28.60;;
39410;SDS011;26579;43.238;23.124;2022-12-07T08:13:52;51.75;;;24.17;;
39410;SDS011;26579;43.238;23.124;2022-12-07T08:16:17;43.97;;;24.30;;
39410;SDS011;26579;43.238;23.124;2022-12-07T08:18:43;48.13;;;26.02;;
39410;SDS011;26579;43.238;23.124;2022-12-07T08:21:13;55.47;;;29.15;;
39410;SDS011;26579;43.238;23.124;2022-12-07T08:23:39;49.05;;;25.40;;
39410;SDS011;26579;43.238;23.124;2022-12-07T08:26:06;43.03;;;22.40;;
39410;SDS011;26579;43.238;23.124;2022-12-07T08:28:34;46.58;;;23.20;;
39410;SDS011;26579;43.238;23.124;2022-12-07T08:31:01;47.95;;;22.77;;
39410;SDS011;26579;43.238;23.124;2022-12-07T08:33:27;47.03;;;24.73;;
39410;SDS011;26579;43.238;23.124;2022-12-07T08:35:53;56.80;;;28.50;;
39410;SDS011;26579;43.238;23.124;2022-12-07T08:38:18;54.85;;;26.85;;
39410;SDS011;26579;43.238;23.124;2022-12-07T08:40:44;67.68;;;30.90;;
39410;SDS011;26579;43.238;23.124;2022-12-07T08:43:10;70.10;;;34.13;;
39410;SDS011;26579;43.238;23.124;2022-12-07T08:45:35;71.65;;;33.88;;
39410;SDS011;26579;43.238;23.124;2022-12-07T08:48:10;78.45;;;37.05;;
39410;SDS011;26579;43.238;23.124;2022-12-07T08:50:39;83.43;;;42.05;;
39410;SDS011;26579;43.238;23.124;2022-12-07T08:53:05;70.82;;;36.97;;
39410;SDS011;26579;43.238;23.124;2022-12-07T08:55:31;287.95;;;160.00;;
39410;SDS011;26579;43.238;23.124;2022-12-07T08:57:59;97.07;;;50.58;;
39410;SDS011;26579;43.238;23.124;2022-12-07T09:00:25;96.40;;;48.03;;
39410;SDS011;26579;43.238;23.124;2022-12-07T09:02:52;90.28;;;46.97;;
39410;SDS011;26579;43.238;23.124;2022-12-07T09:05:19;98.55;;;51.75;;
39410;SDS011;26579;43.238;23.124;2022-12-07T09:07:45;91.85;;;46.03;;
39410;SDS011;26579;43.238;23.124;2022-12-07T09:10:13;101.72;;;53.05;;
39410;SDS011;26579;43.238;23.124;2022-12-07T09:12:39;93.70;;;48.58;;
39410;SDS011;26579;43.238;23.124;2022-12-07T09:15:05;135.02;;;69.03;;
39410;SDS011;26579;43.238;23.124;2022-12-07T09:17:32;124.22;;;67.35;;
39410;SDS011;26579;43.238;23.124;2022-12-07T09:19:58;107.25;;;58.53;;
39410;SDS011;26579;43.238;23.124;2022-12-07T09:22:24;114.82;;;62.95;;
39410;SDS011;26579;43.238;23.124;2022-12-07T09:24:49;105.30;;;59.85;;
39410;SDS011;26579;43.238;23.124;2022-12-07T09:27:15;117.90;;;64.88;;
39410;SDS011;26579;43.238;23.124;2022-12-07T09:29:41;115.07;;;64.80;;
39410;SDS011;26579;43.238;23.124;2022-12-07T09:32:06;114.35;;;60.92;;
39410;SDS011;26579;43.238;23.124;2022-12-07T09:34:32;123.50;;;65.40;;
39410;SDS011;26579;43.238;23.124;2022-12-07T09:36:58;138.40;;;77.00;;
39410;SDS011;26579;43.238;23.124;2022-12-07T09:39:26;129.75;;;72.47;;
39410;SDS011;26579;43.238;23.124;2022-12-07T09:41:52;129.65;;;71.28;;
39410;SDS011;26579;43.238;23.124;2022-12-07T09:44:20;126.55;;;68.38;;
39410;SDS011;26579;43.238;23.124;2022-12-07T09:46:49;133.65;;;73.88;;
39410;SDS011;26579;43.238;23.124;2022-12-07T09:49:16;125.88;;;68.15;;
39410;SDS011;26579;43.238;23.124;2022-12-07T09:51:44;117.45;;;64.10;;
39410;SDS011;26579;43.238;23.124;2022-12-07T09:54:16;117.85;;;66.35;;
39410;SDS011;26579;43.238;23.124;2022-12-07T09:56:42;176.05;;;96.25;;
39410;SDS011;26579;43.238;23.124;2022-12-07T09:59:12;154.38;;;86.10;;
39410;SDS011;26579;43.238;23.124;2022-12-07T10:01:41;144.20;;;80.90;;
39410;SDS011;26579;43.238;23.124;2022-12-07T10:06:45;106.65;;;56.80;;
39410;SDS011;26579;43.238;23.124;2022-12-07T10:09:11;101.63;;;55.55;;
39410;SDS011;26579;43.238;23.124;2022-12-07T10:14:23;79.40;;;42.53;;
39410;SDS011;26579;43.238;23.124;2022-12-07T10:16:51;63.67;;;35.00;;
39410;SDS011;26579;43.238;23.124;2022-12-07T10:19:26;46.67;;;25.95;;
39410;SDS011;26579;43.238;23.124;2022-12-07T10:22:38;47.17;;;25.58;;
39410;SDS011;26579;43.238;23.124;2022-12-07T10:24:46;59.45;;;36.95;;
39410;SDS011;26579;43.238;23.124;2022-12-07T10:27:19;43.30;;;24.35;;
39410;SDS011;26579;43.238;23.124;2022-12-07T10:29:51;38.88;;;21.95;;
39410;SDS011;26579;43.238;23.124;2022-12-07T10:34:43;47.38;;;25.75;;
39410;SDS011;26579;43.238;23.124;2022-12-07T10:39:51;25.10;;;14.23;;
39410;SDS011;26579;43.238;23.124;2022-12-07T10:42:28;28.15;;;17.25;;
39410;SDS011;26579;43.238;23.124;2022-12-07T10:45:15;23.25;;;13.05;;
39410;SDS011;26579;43.238;23.124;2022-12-07T10:58:31;28.50;;;15.85;;
39410;SDS011;26579;43.238;23.124;2022-12-07T11:01:10;19.33;;;12.82;;
39410;SDS011;26579;43.238;23.124;2022-12-07T11:03:53;26.70;;;14.73;;
39410;SDS011;26579;43.238;23.124;2022-12-07T11:16:21;23.13;;;13.23;;
39410;SDS011;26579;43.238;23.124;2022-12-07T11:24:29;25.00;;;12.70;;
39410;SDS011;26579;43.238;23.124;2022-12-07T11:30:10;27.02;;;15.85;;
39410;SDS011;26579;43.238;23.124;2022-12-07T11:35:43;24.45;;;13.25;;
39410;SDS011;26579;43.238;23.124;2022-12-07T11:38:20;24.40;;;15.45;;
39410;SDS011;26579;43.238;23.124;2022-12-07T11:40:50;35.92;;;19.92;;
39410;SDS011;26579;43.238;23.124;2022-12-07T11:45:59;40.70;;;23.90;;
39410;SDS011;26579;43.238;23.124;2022-12-07T11:48:33;33.10;;;19.10;;
39410;SDS011;26579;43.238;23.124;2022-12-07T11:51:03;30.83;;;17.98;;
39410;SDS011;26579;43.238;23.124;2022-12-07T11:56:09;29.05;;;15.13;;
39410;SDS011;26579;43.238;23.124;2022-12-07T12:03:45;29.73;;;15.25;;
39410;SDS011;26579;43.238;23.124;2022-12-07T12:06:37;32.47;;;18.15;;
39410;SDS011;26579;43.238;23.124;2022-12-07T12:09:06;37.55;;;21.35;;
39410;SDS011;26579;43.238;23.124;2022-12-07T12:19:57;37.30;;;20.65;;
39410;SDS011;26579;43.238;23.124;2022-12-07T12:22:37;35.30;;;20.55;;
39410;SDS011;26579;43.238;23.124;2022-12-07T12:25:07;37.38;;;20.42;;
39410;SDS011;26579;43.238;23.124;2022-12-07T12:27:48;33.00;;;20.23;;
39410;SDS011;26579;43.238;23.124;2022-12-07T12:30:34;33.33;;;19.38;;
39410;SDS011;26579;43.238;23.124;2022-12-07T12:33:02;32.67;;;18.65;;
39410;SDS011;26579;43.238;23.124;2022-12-07T12:35:39;37.30;;;22.73;;
39410;SDS011;26579;43.238;23.124;2022-12-07T12:38:24;31.08;;;19.73;;
39410;SDS011;26579;43.238;23.124;2022-12-07T12:40:54;38.35;;;23.42;;
39410;SDS011;26579;43.238;23.124;2022-12-07T12:49:14;27.42;;;15.20;;
39410;SDS011;26579;43.238;23.124;2022-12-07T12:51:49;32.67;;;20.20;;
39410;SDS011;26579;43.238;23.124;2022-12-07T12:57:43;29.85;;;18.25;;
39410;SDS011;26579;43.238;23.124;2022-12-07T13:00:20;31.60;;;17.58;;
39410;SDS011;26579;43.238;23.124;2022-12-07T13:02:53;26.58;;;15.90;;
39410;SDS011;26579;43.238;23.124;2022-12-07T13:05:21;28.17;;;14.05;;
39410;SDS011;26579;43.238;23.124;2022-12-07T13:07:51;32.35;;;17.02;;
39410;SDS011;26579;43.238;23.124;2022-12-07T13:12:56;47.30;;;23.63;;
39410;SDS011;26579;43.238;23.124;2022-12-07T13:15:32;29.90;;;16.42;;
39410;SDS011;26579;43.238;23.124;2022-12-07T13:17:59;26.48;;;14.95;;
39410;SDS011;26579;43.238;23.124;2022-12-07T13:23:30;30.58;;;15.48;;
39410;SDS011;26579;43.238;23.124;2022-12-07T13:36:59;41.70;;;21.65;;
39410;SDS011;26579;43.238;23.124;2022-12-07T13:39:27;42.67;;;18.30;;
39410;SDS011;26579;43.238;23.124;2022-12-07T13:44:20;44.58;;;20.92;;
39410;SDS011;26579;43.238;23.124;2022-12-07T13:49:53;36.25;;;18.38;;
39410;SDS011;26579;43.238;23.124;2022-12-07T13:52:22;43.53;;;20.20;;
39410;SDS011;26579;43.238;23.124;2022-12-07T13:54:57;54.55;;;23.55;;
39410;SDS011;26579;43.238;23.124;2022-12-07T13:57:24;97.82;;;25.27;;
39410;SDS011;26579;43.238;23.124;2022-12-07T13:59:51;80.97;;;38.78;;
39410;SDS011;26579;43.238;23.124;2022-12-07T14:02:22;56.70;;;29.65;;
39410;SDS011;26579;43.238;23.124;2022-12-07T14:04:49;74.78;;;37.10;;
39410;SDS011;26579;43.238;23.124;2022-12-07T14:09:56;111.28;;;29.38;;
39410;SDS011;26579;43.238;23.124;2022-12-07T14:12:30;56.20;;;25.58;;
39410;SDS011;26579;43.238;23.124;2022-12-07T14:14:57;103.53;;;36.90;;
39410;SDS011;26579;43.238;23.124;2022-12-07T14:17:25;51.47;;;23.52;;
39410;SDS011;26579;43.238;23.124;2022-12-07T14:19:59;41.88;;;20.20;;
39410;SDS011;26579;43.238;23.124;2022-12-07T14:22:28;44.35;;;19.70;;
39410;SDS011;26579;43.238;23.124;2022-12-07T14:27:39;43.05;;;20.77;;
39410;SDS011;26579;43.238;23.124;2022-12-07T14:30:15;44.53;;;19.52;;
39410;SDS011;26579;43.238;23.124;2022-12-07T14:32:42;53.45;;;26.63;;
39410;SDS011;26579;43.238;23.124;2022-12-07T14:35:11;41.28;;;19.38;;
39410;SDS011;26579;43.238;23.124;2022-12-07T14:37:39;44.42;;;22.60;;
39410;SDS011;26579;43.238;23.124;2022-12-07T14:40:06;68.55;;;24.13;;
39410;SDS011;26579;43.238;23.124;2022-12-07T14:42:33;46.40;;;22.85;;
39410;SDS011;26579;43.238;23.124;2022-12-07T14:45:00;53.22;;;24.05;;
39410;SDS011;26579;43.238;23.124;2022-12-07T14:47:26;55.42;;;22.08;;
39410;SDS011;26579;43.238;23.124;2022-12-07T14:49:52;40.00;;;20.98;;
39410;SDS011;26579;43.238;23.124;2022-12-07T14:52:22;48.25;;;21.90;;
39410;SDS011;26579;43.238;23.124;2022-12-07T14:54:52;39.13;;;20.23;;
39410;SDS011;26579;43.238;23.124;2022-12-07T14:57:18;49.35;;;22.40;;
39410;SDS011;26579;43.238;23.124;2022-12-07T14:59:43;45.15;;;21.90;;
39410;SDS011;26579;43.238;23.124;2022-12-07T15:02:10;47.90;;;22.67;;
39410;SDS011;26579;43.238;23.124;2022-12-07T15:04:37;44.90;;;22.90;;
39410;SDS011;26579;43.238;23.124;2022-12-07T15:07:04;100.68;;;25.65;;
39410;SDS011;26579;43.238;23.124;2022-12-07T15:09:31;49.55;;;21.85;;
39410;SDS011;26579;43.238;23.124;2022-12-07T15:11:57;126.25;;;19.85;;
39410;SDS011;26579;43.238;23.124;2022-12-07T15:14:22;43.95;;;18.60;;
39410;SDS011;26579;43.238;23.124;2022-12-07T15:16:48;148.32;;;19.30;;
39410;SDS011;26579;43.238;23.124;2022-12-07T15:19:17;33.83;;;15.23;;
39410;SDS011;26579;43.238;23.124;2022-12-07T15:21:44;172.30;;;63.63;;
39410;SDS011;26579;43.238;23.124;2022-12-07T15:24:11;36.53;;;18.55;;
39410;SDS011;26579;43.238;23.124;2022-12-07T15:26:38;59.72;;;22.45;;
39410;SDS011;26579;43.238;23.124;2022-12-07T15:29:05;37.60;;;20.23;;
39410;SDS011;26579;43.238;23.124;2022-12-07T15:31:30;51.72;;;21.58;;
39410;SDS011;26579;43.238;23.124;2022-12-07T15:33:56;45.05;;;20.52;;
39410;SDS011;26579;43.238;23.124;2022-12-07T15:36:23;66.28;;;19.80;;
39410;SDS011;26579;43.238;23.124;2022-12-07T15:38:50;39.10;;;18.40;;
39410;SDS011;26579;43.238;23.124;2022-12-07T15:41:16;47.25;;;16.85;;
39410;SDS011;26579;43.238;23.124;2022-12-07T15:43:43;47.83;;;17.65;;
39410;SDS011;26579;43.238;23.124;2022-12-07T15:46:09;37.20;;;18.45;;
39410;SDS011;26579;43.238;23.124;2022-12-07T15:48:34;37.30;;;17.42;;
39410;SDS011;26579;43.238;23.124;2022-12-07T15:51:03;47.17;;;17.60;;
39410;SDS011;26579;43.238;23.124;2022-12-07T15:53:30;66.65;;;25.67;;
39410;SDS011;26579;43.238;23.124;2022-12-07T15:55:56;57.75;;;20.70;;
39410;SDS011;26579;43.238;23.124;2022-12-07T15:58:22;80.38;;;16.45;;
39410;SDS011;26579;43.238;23.124;2022-12-07T16:00:48;41.05;;;18.15;;
39410;SDS011;26579;43.238;23.124;2022-12-07T16:03:14;45.60;;;22.10;;
39410;SDS011;26579;43.238;23.124;2022-12-07T16:05:39;74.85;;;18.90;;
39410;SDS011;26579;43.238;23.124;2022-12-07T16:08:05;35.85;;;15.98;;
39410;SDS011;26579;43.238;23.124;2022-12-07T16:10:31;46.30;;;17.60;;
39410;SDS011;26579;43.238;23.124;2022-12-07T16:12:57;41.38;;;19.17;;
39410;SDS011;26579;43.238;23.124;2022-12-07T16:15:22;38.83;;;18.00;;
39410;SDS011;26579;43.238;23.124;2022-12-07T16:17:48;81.95;;;21.60;;
39410;SDS011;26579;43.238;23.124;2022-12-07T16:20:14;68.55;;;27.33;;
39410;SDS011;26579;43.238;23.124;2022-12-07T16:22:39;65.57;;;27.27;;
39410;SDS011;26579;43.238;23.124;2022-12-07T16:25:05;64.88;;;25.92;;
39410;SDS011;26579;43.238;23.124;2022-12-07T16:27:31;49.60;;;24.55;;